sensor_id;sensor_type;location;lat;lon;timestamp;P1;P2;P0
76025;PMS5003;64721;51.084;17.242;2022-11-11T00:01:42;31;30;
76025;PMS5003;64721;51.084;17.242;2022-11-11T00:07:06;37;34;
76025;PMS5003;64721;51.084;17.242;2022-11-11T00:09:04;26;25;
76025;PMS5003;64721;51.084;17.242;2022-11-11T00:11:17;43;40;
76025;PMS5003;64721;51.084;17.242;2022-11-11T00:13:06;40;38;
76025;PMS5003;64721;51.084;17.242;2022-11-11T00:14:52;31;27;
76025;PMS5003;64721;51.084;17.242;2022-11-11T00:16:41;24;22;
76025;PMS5003;64721;51.084;17.242;2022-11-11T00:18:25;29;25;
76025;PMS5003;64721;51.084;17.242;2022-11-11T00:20:40;31;26;
76025;PMS5003;64721;51.084;17.242;2022-11-11T00:22:24;30;26;
76025;PMS5003;64721;51.084;17.242;2022-11-11T00:24:15;26;24;
76025;PMS5003;64721;51.084;17.242;2022-11-11T00:26:28;21;21;
76025;PMS5003;64721;51.084;17.242;2022-11-11T00:28:58;27;23;
76025;PMS5003;64721;51.084;17.242;2022-11-11T00:31:57;24;22;
76025;PMS5003;64721;51.084;17.242;2022-11-11T00:33:56;22;22;
76025;PMS5003;64721;51.084;17.242;2022-11-11T00:35:57;24;24;
76025;PMS5003;64721;51.084;17.242;2022-11-11T00:38:03;21;21;
76025;PMS5003;64721;51.084;17.242;2022-11-11T00:39:50;21;21;
76025;PMS5003;64721;51.084;17.242;2022-11-11T00:41:48;28;27;
76025;PMS5003;64721;51.084;17.242;2022-11-11T00:44:32;31;28;
76025;PMS5003;64721;51.084;17.242;2022-11-11T00:46:19;31;28;
76025;PMS5003;64721;51.084;17.242;2022-11-11T00:48:17;30;28;
76025;PMS5003;64721;51.084;17.242;2022-11-11T00:50:17;24;23;
76025;PMS5003;64721;51.084;17.242;2022-11-11T00:52:05;24;23;
76025;PMS5003;64721;51.084;17.242;2022-11-11T00:54:17;28;26;
76025;PMS5003;64721;51.084;17.242;2022-11-11T00:56:37;21;20;
76025;PMS5003;64721;51.084;17.242;2022-11-11T00:58:49;32;29;
76025;PMS5003;64721;51.084;17.242;2022-11-11T01:01:05;23;20;
76025;PMS5003;64721;51.084;17.242;2022-11-11T01:02:52;25;20;
76025;PMS5003;64721;51.084;17.242;2022-11-11T01:05:02;22;20;
76025;PMS5003;64721;51.084;17.242;2022-11-11T01:07:29;24;22;
76025;PMS5003;64721;51.084;17.242;2022-11-11T01:09:20;23;21;
76025;PMS5003;64721;51.084;17.242;2022-11-11T01:11:24;21;19;
76025;PMS5003;64721;51.084;17.242;2022-11-11T01:13:36;29;25;
76025;PMS5003;64721;51.084;17.242;2022-11-11T01:15:21;29;25;
76025;PMS5003;64721;51.084;17.242;2022-11-11T01:17:31;24;20;
76025;PMS5003;64721;51.084;17.242;2022-11-11T01:19:30;24;21;
76025;PMS5003;64721;51.084;17.242;2022-11-11T01:21:16;24;21;
76025;PMS5003;64721;51.084;17.242;2022-11-11T01:23:29;31;30;
76025;PMS5003;64721;51.084;17.242;2022-11-11T01:25:14;31;30;
76025;PMS5003;64721;51.084;17.242;2022-11-11T01:27:41;25;24;
76025;PMS5003;64721;51.084;17.242;2022-11-11T01:29:43;19;18;
76025;PMS5003;64721;51.084;17.242;2022-11-11T01:31:46;20;19;
76025;PMS5003;64721;51.084;17.242;2022-11-11T01:33:31;20;19;
76025;PMS5003;64721;51.084;17.242;2022-11-11T01:36:14;18;17;
76025;PMS5003;64721;51.084;17.242;2022-11-11T01:38:17;17;16;
76025;PMS5003;64721;51.084;17.242;2022-11-11T01:40:01;17;16;
76025;PMS5003;64721;51.084;17.242;2022-11-11T01:42:00;21;19;
76025;PMS5003;64721;51.084;17.242;2022-11-11T01:43:58;21;19;
76025;PMS5003;64721;51.084;17.242;2022-11-11T01:46:08;22;20;
76025;PMS5003;64721;51.084;17.242;2022-11-11T01:48:15;30;27;
76025;PMS5003;64721;51.084;17.242;2022-11-11T01:50:17;31;29;
76025;PMS5003;64721;51.084;17.242;2022-11-11T01:52:21;28;27;
76025;PMS5003;64721;51.084;17.242;2022-11-11T01:54:25;20;19;
76025;PMS5003;64721;51.084;17.242;2022-11-11T01:56:40;24;21;
76025;PMS5003;64721;51.084;17.242;2022-11-11T01:58:28;24;21;
76025;PMS5003;64721;51.084;17.242;2022-11-11T02:02:54;19;17;
76025;PMS5003;64721;51.084;17.242;2022-11-11T02:04:41;22;21;
76025;PMS5003;64721;51.084;17.242;2022-11-11T02:07:07;22;17;
76025;PMS5003;64721;51.084;17.242;2022-11-11T02:09:08;19;18;
76025;PMS5003;64721;51.084;17.242;2022-11-11T02:10:53;19;18;
76025;PMS5003;64721;51.084;17.242;2022-11-11T02:12:54;21;20;
76025;PMS5003;64721;51.084;17.242;2022-11-11T02:14:56;16;15;
76025;PMS5003;64721;51.084;17.242;2022-11-11T02:16:41;16;15;
76025;PMS5003;64721;51.084;17.242;2022-11-11T02:19:22;19;17;
76025;PMS5003;64721;51.084;17.242;2022-11-11T02:21:27;27;26;
76025;PMS5003;64721;51.084;17.242;2022-11-11T02:23:23;29;28;
76025;PMS5003;64721;51.084;17.242;2022-11-11T02:27:07;23;22;
76025;PMS5003;64721;51.084;17.242;2022-11-11T02:29:09;21;20;
76025;PMS5003;64721;51.084;17.242;2022-11-11T02:31:50;24;24;
76025;PMS5003;64721;51.084;17.242;2022-11-11T02:33:35;25;24;
76025;PMS5003;64721;51.084;17.242;2022-11-11T02:35:37;16;16;
76025;PMS5003;64721;51.084;17.242;2022-11-11T02:37:36;18;18;
76025;PMS5003;64721;51.084;17.242;2022-11-11T02:39:35;23;22;
76025;PMS5003;64721;51.084;17.242;2022-11-11T02:41:57;20;18;
76025;PMS5003;64721;51.084;17.242;2022-11-11T02:44:00;22;22;
76025;PMS5003;64721;51.084;17.242;2022-11-11T02:46:13;26;24;
76025;PMS5003;64721;51.084;17.242;2022-11-11T02:47:58;25;24;
76025;PMS5003;64721;51.084;17.242;2022-11-11T02:50:09;20;18;
76025;PMS5003;64721;51.084;17.242;2022-11-11T02:52:07;18;17;
76025;PMS5003;64721;51.084;17.242;2022-11-11T02:54:07;20;19;
76025;PMS5003;64721;51.084;17.242;2022-11-11T02:55:53;20;19;
76025;PMS5003;64721;51.084;17.242;2022-11-11T03:01:25;19;18;
76025;PMS5003;64721;51.084;17.242;2022-11-11T03:03:10;18;17;
76025;PMS5003;64721;51.084;17.242;2022-11-11T03:07:04;15;15;
76025;PMS5003;64721;51.084;17.242;2022-11-11T03:08:51;15;15;
76025;PMS5003;64721;51.084;17.242;2022-11-11T03:10:35;16;15;
76025;PMS5003;64721;51.084;17.242;2022-11-11T03:12:32;16;15;
76025;PMS5003;64721;51.084;17.242;2022-11-11T03:14:30;15;14;
76025;PMS5003;64721;51.084;17.242;2022-11-11T03:16:29;22;21;
76025;PMS5003;64721;51.084;17.242;2022-11-11T03:18:14;22;21;
76025;PMS5003;64721;51.084;17.242;2022-11-11T03:20:01;15;13;
76025;PMS5003;64721;51.084;17.242;2022-11-11T03:22:16;22;20;
76025;PMS5003;64721;51.084;17.242;2022-11-11T03:24:01;22;21;
76025;PMS5003;64721;51.084;17.242;2022-11-11T03:25:46;18;18;
76025;PMS5003;64721;51.084;17.242;2022-11-11T03:27:32;15;15;
76025;PMS5003;64721;51.084;17.242;2022-11-11T03:29:18;15;15;
76025;PMS5003;64721;51.084;17.242;2022-11-11T03:31:19;21;19;
76025;PMS5003;64721;51.084;17.242;2022-11-11T03:33:04;22;20;
76025;PMS5003;64721;51.084;17.242;2022-11-11T03:35:00;16;15;
76025;PMS5003;64721;51.084;17.242;2022-11-11T03:37:29;25;24;
76025;PMS5003;64721;51.084;17.242;2022-11-11T03:39:16;25;24;
76025;PMS5003;64721;51.084;17.242;2022-11-11T03:41:14;18;18;
76025;PMS5003;64721;51.084;17.242;2022-11-11T03:43:04;20;20;
76025;PMS5003;64721;51.084;17.242;2022-11-11T03:45:05;16;15;
76025;PMS5003;64721;51.084;17.242;2022-11-11T03:47:04;18;17;
76025;PMS5003;64721;51.084;17.242;2022-11-11T03:48:49;17;16;
76025;PMS5003;64721;51.084;17.242;2022-11-11T03:52:23;22;22;
76025;PMS5003;64721;51.084;17.242;2022-11-11T03:54:12;23;23;
76025;PMS5003;64721;51.084;17.242;2022-11-11T03:56:10;16;15;
76025;PMS5003;64721;51.084;17.242;2022-11-11T03:58:11;15;15;
76025;PMS5003;64721;51.084;17.242;2022-11-11T04:02:17;25;23;
76025;PMS5003;64721;51.084;17.242;2022-11-11T04:04:01;25;23;
76025;PMS5003;64721;51.084;17.242;2022-11-11T04:12:35;20;19;
76025;PMS5003;64721;51.084;17.242;2022-11-11T04:14:35;20;19;
76025;PMS5003;64721;51.084;17.242;2022-11-11T04:16:36;21;21;
76025;PMS5003;64721;51.084;17.242;2022-11-11T04:18:33;12;11;
76025;PMS5003;64721;51.084;17.242;2022-11-11T04:20:20;12;11;
76025;PMS5003;64721;51.084;17.242;2022-11-11T04:22:04;12;11;
76025;PMS5003;64721;51.084;17.242;2022-11-11T04:23:49;13;12;
76025;PMS5003;64721;51.084;17.242;2022-11-11T04:25:33;20;18;
76025;PMS5003;64721;51.084;17.242;2022-11-11T04:29:07;16;16;
76025;PMS5003;64721;51.084;17.242;2022-11-11T04:30:56;17;16;
76025;PMS5003;64721;51.084;17.242;2022-11-11T04:32:43;19;17;
76025;PMS5003;64721;51.084;17.242;2022-11-11T04:34:41;21;20;
76025;PMS5003;64721;51.084;17.242;2022-11-11T04:36:30;21;20;
76025;PMS5003;64721;51.084;17.242;2022-11-11T04:38:42;25;24;
76025;PMS5003;64721;51.084;17.242;2022-11-11T04:40:41;20;20;
76025;PMS5003;64721;51.084;17.242;2022-11-11T04:42:40;37;34;
76025;PMS5003;64721;51.084;17.242;2022-11-11T04:45:24;39;36;
76025;PMS5003;64721;51.084;17.242;2022-11-11T04:47:11;40;36;
76025;PMS5003;64721;51.084;17.242;2022-11-11T04:49:18;36;34;
76025;PMS5003;64721;51.084;17.242;2022-11-11T04:51:29;32;28;
76025;PMS5003;64721;51.084;17.242;2022-11-11T04:53:28;24;23;
76025;PMS5003;64721;51.084;17.242;2022-11-11T04:55:25;31;30;
76025;PMS5003;64721;51.084;17.242;2022-11-11T04:57:10;31;30;
76025;PMS5003;64721;51.084;17.242;2022-11-11T04:59:08;27;23;
76025;PMS5003;64721;51.084;17.242;2022-11-11T05:01:07;24;24;
76025;PMS5003;64721;51.084;17.242;2022-11-11T05:03:05;23;23;
76025;PMS5003;64721;51.084;17.242;2022-11-11T05:05:17;19;19;
76025;PMS5003;64721;51.084;17.242;2022-11-11T05:07:01;19;19;
76025;PMS5003;64721;51.084;17.242;2022-11-11T05:09:02;22;19;
76025;PMS5003;64721;51.084;17.242;2022-11-11T05:10:47;23;21;
76025;PMS5003;64721;51.084;17.242;2022-11-11T05:12:33;23;20;
76025;PMS5003;64721;51.084;17.242;2022-11-11T05:15:14;18;17;
76025;PMS5003;64721;51.084;17.242;2022-11-11T05:17:28;15;15;
76025;PMS5003;64721;51.084;17.242;2022-11-11T05:19:26;14;13;
76025;PMS5003;64721;51.084;17.242;2022-11-11T05:21:25;24;23;
76025;PMS5003;64721;51.084;17.242;2022-11-11T05:23:24;16;16;
76025;PMS5003;64721;51.084;17.242;2022-11-11T05:26:19;20;20;
76025;PMS5003;64721;51.084;17.242;2022-11-11T05:28:19;26;25;
76025;PMS5003;64721;51.084;17.242;2022-11-11T05:30:17;14;14;
76025;PMS5003;64721;51.084;17.242;2022-11-11T05:32:22;18;17;
76025;PMS5003;64721;51.084;17.242;2022-11-11T05:34:07;19;18;
76025;PMS5003;64721;51.084;17.242;2022-11-11T05:36:08;18;18;
76025;PMS5003;64721;51.084;17.242;2022-11-11T05:37:53;18;18;
76025;PMS5003;64721;51.084;17.242;2022-11-11T05:39:43;16;15;
76025;PMS5003;64721;51.084;17.242;2022-11-11T05:41:34;17;16;
76025;PMS5003;64721;51.084;17.242;2022-11-11T05:43:48;18;16;
76025;PMS5003;64721;51.084;17.242;2022-11-11T05:45:34;17;16;
76025;PMS5003;64721;51.084;17.242;2022-11-11T05:47:32;19;18;
76025;PMS5003;64721;51.084;17.242;2022-11-11T05:49:16;19;18;
76025;PMS5003;64721;51.084;17.242;2022-11-11T05:51:16;24;23;
76025;PMS5003;64721;51.084;17.242;2022-11-11T05:53:14;22;19;
76025;PMS5003;64721;51.084;17.242;2022-11-11T06:00:32;21;19;
76025;PMS5003;64721;51.084;17.242;2022-11-11T06:02:40;20;19;
76025;PMS5003;64721;51.084;17.242;2022-11-11T06:04:38;15;15;
76025;PMS5003;64721;51.084;17.242;2022-11-11T06:06:44;21;17;
76025;PMS5003;64721;51.084;17.242;2022-11-11T06:08:29;21;17;
76025;PMS5003;64721;51.084;17.242;2022-11-11T06:10:15;15;15;
76025;PMS5003;64721;51.084;17.242;2022-11-11T06:12:14;22;21;
76025;PMS5003;64721;51.084;17.242;2022-11-11T06:13:59;22;22;
76025;PMS5003;64721;51.084;17.242;2022-11-11T06:15:58;22;21;
76025;PMS5003;64721;51.084;17.242;2022-11-11T06:17:43;22;22;
76025;PMS5003;64721;51.084;17.242;2022-11-11T06:20:21;24;23;
76025;PMS5003;64721;51.084;17.242;2022-11-11T06:22:06;24;23;
76025;PMS5003;64721;51.084;17.242;2022-11-11T06:25:48;16;15;
76025;PMS5003;64721;51.084;17.242;2022-11-11T06:27:48;15;14;
76025;PMS5003;64721;51.084;17.242;2022-11-11T06:29:47;13;12;
76025;PMS5003;64721;51.084;17.242;2022-11-11T06:32:04;17;15;
76025;PMS5003;64721;51.084;17.242;2022-11-11T06:33:48;17;14;
76025;PMS5003;64721;51.084;17.242;2022-11-11T06:35:49;18;17;
76025;PMS5003;64721;51.084;17.242;2022-11-11T06:37:34;17;16;
76025;PMS5003;64721;51.084;17.242;2022-11-11T06:39:32;12;12;
76025;PMS5003;64721;51.084;17.242;2022-11-11T06:41:18;13;13;
76025;PMS5003;64721;51.084;17.242;2022-11-11T06:43:17;24;23;
76025;PMS5003;64721;51.084;17.242;2022-11-11T06:45:15;28;27;
76025;PMS5003;64721;51.084;17.242;2022-11-11T06:47:03;27;26;
76025;PMS5003;64721;51.084;17.242;2022-11-11T06:49:02;17;16;
76025;PMS5003;64721;51.084;17.242;2022-11-11T06:50:48;17;16;
76025;PMS5003;64721;51.084;17.242;2022-11-11T06:52:34;20;19;
76025;PMS5003;64721;51.084;17.242;2022-11-11T06:54:21;17;16;
76025;PMS5003;64721;51.084;17.242;2022-11-11T06:56:22;19;19;
76025;PMS5003;64721;51.084;17.242;2022-11-11T06:58:21;19;18;
76025;PMS5003;64721;51.084;17.242;2022-11-11T07:00:28;16;15;
76025;PMS5003;64721;51.084;17.242;2022-11-11T07:02:40;17;16;
76025;PMS5003;64721;51.084;17.242;2022-11-11T07:04:41;22;22;
76025;PMS5003;64721;51.084;17.242;2022-11-11T07:06:25;22;22;
76025;PMS5003;64721;51.084;17.242;2022-11-11T07:08:11;19;18;
76025;PMS5003;64721;51.084;17.242;2022-11-11T07:11:49;17;16;
76025;PMS5003;64721;51.084;17.242;2022-11-11T07:13:33;17;16;
76025;PMS5003;64721;51.084;17.242;2022-11-11T07:15:41;17;17;
76025;PMS5003;64721;51.084;17.242;2022-11-11T07:17:39;17;16;
76025;PMS5003;64721;51.084;17.242;2022-11-11T07:19:24;17;16;
76025;PMS5003;64721;51.084;17.242;2022-11-11T07:21:09;18;17;
76025;PMS5003;64721;51.084;17.242;2022-11-11T07:23:06;17;17;
76025;PMS5003;64721;51.084;17.242;2022-11-11T07:25:03;23;23;
76025;PMS5003;64721;51.084;17.242;2022-11-11T07:27:07;19;19;
76025;PMS5003;64721;51.084;17.242;2022-11-11T07:28:54;19;19;
76025;PMS5003;64721;51.084;17.242;2022-11-11T07:31:06;14;14;
76025;PMS5003;64721;51.084;17.242;2022-11-11T07:33:10;12;12;
76025;PMS5003;64721;51.084;17.242;2022-11-11T07:35:10;24;23;
76025;PMS5003;64721;51.084;17.242;2022-11-11T07:36:55;24;23;
76025;PMS5003;64721;51.084;17.242;2022-11-11T07:38:39;13;13;
76025;PMS5003;64721;51.084;17.242;2022-11-11T07:40:37;14;13;
76025;PMS5003;64721;51.084;17.242;2022-11-11T07:42:21;14;13;
76025;PMS5003;64721;51.084;17.242;2022-11-11T07:44:05;12;12;
76025;PMS5003;64721;51.084;17.242;2022-11-11T07:49:37;10;10;
76025;PMS5003;64721;51.084;17.242;2022-11-11T07:51:34;13;13;
76025;PMS5003;64721;51.084;17.242;2022-11-11T07:53:24;13;13;
76025;PMS5003;64721;51.084;17.242;2022-11-11T07:55:09;10;10;
76025;PMS5003;64721;51.084;17.242;2022-11-11T07:57:06;17;16;
76025;PMS5003;64721;51.084;17.242;2022-11-11T07:59:04;18;17;
76025;PMS5003;64721;51.084;17.242;2022-11-11T08:01:03;12;11;
76025;PMS5003;64721;51.084;17.242;2022-11-11T08:02:50;11;10;
76025;PMS5003;64721;51.084;17.242;2022-11-11T08:04:47;12;11;
76025;PMS5003;64721;51.084;17.242;2022-11-11T08:06:45;10;10;
76025;PMS5003;64721;51.084;17.242;2022-11-11T08:09:11;14;14;
76025;PMS5003;64721;51.084;17.242;2022-11-11T08:11:09;14;12;
76025;PMS5003;64721;51.084;17.242;2022-11-11T08:12:57;14;12;
76025;PMS5003;64721;51.084;17.242;2022-11-11T08:14:42;12;12;
76025;PMS5003;64721;51.084;17.242;2022-11-11T08:16:27;9;9;
76025;PMS5003;64721;51.084;17.242;2022-11-11T08:18:25;8;8;
76025;PMS5003;64721;51.084;17.242;2022-11-11T08:20:23;11;10;
76025;PMS5003;64721;51.084;17.242;2022-11-11T08:22:21;10;10;
76025;PMS5003;64721;51.084;17.242;2022-11-11T08:24:18;10;9;
76025;PMS5003;64721;51.084;17.242;2022-11-11T08:26:15;13;12;
76025;PMS5003;64721;51.084;17.242;2022-11-11T08:28:13;7;7;
76025;PMS5003;64721;51.084;17.242;2022-11-11T08:29:57;7;7;
76025;PMS5003;64721;51.084;17.242;2022-11-11T08:31:56;7;6;
76025;PMS5003;64721;51.084;17.242;2022-11-11T08:33:52;6;5;
76025;PMS5003;64721;51.084;17.242;2022-11-11T08:39:31;9;9;
76025;PMS5003;64721;51.084;17.242;2022-11-11T08:41:43;7;7;
76025;PMS5003;64721;51.084;17.242;2022-11-11T08:43:40;10;10;
76025;PMS5003;64721;51.084;17.242;2022-11-11T08:45:51;8;8;
76025;PMS5003;64721;51.084;17.242;2022-11-11T08:48:01;10;10;
76025;PMS5003;64721;51.084;17.242;2022-11-11T08:50:15;11;10;
76025;PMS5003;64721;51.084;17.242;2022-11-11T08:52:26;9;9;
76025;PMS5003;64721;51.084;17.242;2022-11-11T08:54:10;8;8;
76025;PMS5003;64721;51.084;17.242;2022-11-11T08:57:51;8;8;
76025;PMS5003;64721;51.084;17.242;2022-11-11T09:00:20;6;6;
76025;PMS5003;64721;51.084;17.242;2022-11-11T09:02:17;9;9;
76025;PMS5003;64721;51.084;17.242;2022-11-11T09:04:41;9;9;
76025;PMS5003;64721;51.084;17.242;2022-11-11T09:06:52;9;9;
76025;PMS5003;64721;51.084;17.242;2022-11-11T09:09:11;8;7;
76025;PMS5003;64721;51.084;17.242;2022-11-11T09:10:56;8;7;
76025;PMS5003;64721;51.084;17.242;2022-11-11T09:12:40;12;11;
76025;PMS5003;64721;51.084;17.242;2022-11-11T09:14:50;13;13;
76025;PMS5003;64721;51.084;17.242;2022-11-11T09:16:49;12;12;
76025;PMS5003;64721;51.084;17.242;2022-11-11T09:18:48;10;10;
76025;PMS5003;64721;51.084;17.242;2022-11-11T09:21:02;10;10;
76025;PMS5003;64721;51.084;17.242;2022-11-11T09:22:47;10;10;
76025;PMS5003;64721;51.084;17.242;2022-11-11T09:24:59;7;7;
76025;PMS5003;64721;51.084;17.242;2022-11-11T09:26:56;7;7;
76025;PMS5003;64721;51.084;17.242;2022-11-11T09:29:37;12;12;
76025;PMS5003;64721;51.084;17.242;2022-11-11T09:31:37;8;8;
76025;PMS5003;64721;51.084;17.242;2022-11-11T09:33:22;8;8;
76025;PMS5003;64721;51.084;17.242;2022-11-11T09:37:10;21;20;
76025;PMS5003;64721;51.084;17.242;2022-11-11T09:39:21;9;9;
76025;PMS5003;64721;51.084;17.242;2022-11-11T09:41:30;9;9;
76025;PMS5003;64721;51.084;17.242;2022-11-11T09:44:15;11;11;
76025;PMS5003;64721;51.084;17.242;2022-11-11T09:46:16;10;10;
76025;PMS5003;64721;51.084;17.242;2022-11-11T09:48:13;8;8;
76025;PMS5003;64721;51.084;17.242;2022-11-11T09:50:20;10;10;
76025;PMS5003;64721;51.084;17.242;2022-11-11T09:52:36;10;10;
76025;PMS5003;64721;51.084;17.242;2022-11-11T09:54:42;11;10;
76025;PMS5003;64721;51.084;17.242;2022-11-11T09:56:44;10;10;
76025;PMS5003;64721;51.084;17.242;2022-11-11T09:58:49;17;17;
76025;PMS5003;64721;51.084;17.242;2022-11-11T10:00:55;11;10;
76025;PMS5003;64721;51.084;17.242;2022-11-11T10:02:51;11;10;
76025;PMS5003;64721;51.084;17.242;2022-11-11T10:04:40;11;11;
76025;PMS5003;64721;51.084;17.242;2022-11-11T10:06:43;11;11;
76025;PMS5003;64721;51.084;17.242;2022-11-11T10:08:51;13;12;
76025;PMS5003;64721;51.084;17.242;2022-11-11T10:11:04;13;11;
76025;PMS5003;64721;51.084;17.242;2022-11-11T10:12:51;13;11;
76025;PMS5003;64721;51.084;17.242;2022-11-11T10:14:37;13;11;
76025;PMS5003;64721;51.084;17.242;2022-11-11T10:16:43;8;8;
76025;PMS5003;64721;51.084;17.242;2022-11-11T10:19:33;8;7;
76025;PMS5003;64721;51.084;17.242;2022-11-11T10:21:20;7;7;
76025;PMS5003;64721;51.084;17.242;2022-11-11T10:23:20;9;9;
76025;PMS5003;64721;51.084;17.242;2022-11-11T10:25:25;17;17;
76025;PMS5003;64721;51.084;17.242;2022-11-11T10:27:14;18;17;
76025;PMS5003;64721;51.084;17.242;2022-11-11T10:29:02;8;8;
76025;PMS5003;64721;51.084;17.242;2022-11-11T10:31:04;15;15;
76025;PMS5003;64721;51.084;17.242;2022-11-11T10:33:15;7;6;
76025;PMS5003;64721;51.084;17.242;2022-11-11T10:35:28;11;10;
76025;PMS5003;64721;51.084;17.242;2022-11-11T10:37:20;11;10;
76025;PMS5003;64721;51.084;17.242;2022-11-11T10:39:24;15;13;
76025;PMS5003;64721;51.084;17.242;2022-11-11T10:41:41;8;8;
76025;PMS5003;64721;51.084;17.242;2022-11-11T10:43:27;8;8;
76025;PMS5003;64721;51.084;17.242;2022-11-11T10:45:59;8;7;
76025;PMS5003;64721;51.084;17.242;2022-11-11T10:47:50;8;7;
76025;PMS5003;64721;51.084;17.242;2022-11-11T10:49:55;8;8;
76025;PMS5003;64721;51.084;17.242;2022-11-11T10:51:56;9;8;
76025;PMS5003;64721;51.084;17.242;2022-11-11T10:54:05;11;10;
76025;PMS5003;64721;51.084;17.242;2022-11-11T10:56:12;13;12;
76025;PMS5003;64721;51.084;17.242;2022-11-11T10:58:17;11;10;
76025;PMS5003;64721;51.084;17.242;2022-11-11T11:00:09;11;10;
76025;PMS5003;64721;51.084;17.242;2022-11-11T11:01:59;10;10;
76025;PMS5003;64721;51.084;17.242;2022-11-11T11:03:54;7;6;
76025;PMS5003;64721;51.084;17.242;2022-11-11T11:05:45;9;8;
76025;PMS5003;64721;51.084;17.242;2022-11-11T11:08:33;10;9;
76025;PMS5003;64721;51.084;17.242;2022-11-11T11:11:18;8;8;
76025;PMS5003;64721;51.084;17.242;2022-11-11T11:13:14;8;8;
76025;PMS5003;64721;51.084;17.242;2022-11-11T11:15:31;9;9;
76025;PMS5003;64721;51.084;17.242;2022-11-11T11:17:35;7;7;
76025;PMS5003;64721;51.084;17.242;2022-11-11T11:19:22;7;7;
76025;PMS5003;64721;51.084;17.242;2022-11-11T11:22:24;17;16;
76025;PMS5003;64721;51.084;17.242;2022-11-11T11:24:28;17;16;
76025;PMS5003;64721;51.084;17.242;2022-11-11T11:26:28;9;9;
76025;PMS5003;64721;51.084;17.242;2022-11-11T11:28:58;8;7;
76025;PMS5003;64721;51.084;17.242;2022-11-11T11:31:12;18;15;
76025;PMS5003;64721;51.084;17.242;2022-11-11T11:33:01;18;16;
76025;PMS5003;64721;51.084;17.242;2022-11-11T11:35:40;17;17;
76025;PMS5003;64721;51.084;17.242;2022-11-11T11:38:08;17;17;
76025;PMS5003;64721;51.084;17.242;2022-11-11T11:44:31;16;14;
76025;PMS5003;64721;51.084;17.242;2022-11-11T11:46:51;9;8;
76025;PMS5003;64721;51.084;17.242;2022-11-11T11:53:02;6;6;
76025;PMS5003;64721;51.084;17.242;2022-11-11T11:55:27;9;8;
76025;PMS5003;64721;51.084;17.242;2022-11-11T11:57:23;9;8;
76025;PMS5003;64721;51.084;17.242;2022-11-11T11:59:21;9;9;
76025;PMS5003;64721;51.084;17.242;2022-11-11T12:01:37;13;12;
76025;PMS5003;64721;51.084;17.242;2022-11-11T12:05:36;12;11;
76025;PMS5003;64721;51.084;17.242;2022-11-11T12:07:44;8;7;
76025;PMS5003;64721;51.084;17.242;2022-11-11T12:10:12;9;9;
76025;PMS5003;64721;51.084;17.242;2022-11-11T12:12:19;9;8;
76025;PMS5003;64721;51.084;17.242;2022-11-11T12:20:48;16;15;
76025;PMS5003;64721;51.084;17.242;2022-11-11T12:23:31;6;6;
76025;PMS5003;64721;51.084;17.242;2022-11-11T12:25:41;8;8;
76025;PMS5003;64721;51.084;17.242;2022-11-11T12:27:35;7;7;
76025;PMS5003;64721;51.084;17.242;2022-11-11T12:30:07;7;7;
76025;PMS5003;64721;51.084;17.242;2022-11-11T12:32:21;6;6;
76025;PMS5003;64721;51.084;17.242;2022-11-11T12:34:44;16;15;
76025;PMS5003;64721;51.084;17.242;2022-11-11T12:37:21;11;10;
76025;PMS5003;64721;51.084;17.242;2022-11-11T12:39:42;8;7;
76025;PMS5003;64721;51.084;17.242;2022-11-11T12:41:47;8;7;
76025;PMS5003;64721;51.084;17.242;2022-11-11T12:43:59;10;8;
76025;PMS5003;64721;51.084;17.242;2022-11-11T12:46:05;8;8;
76025;PMS5003;64721;51.084;17.242;2022-11-11T12:50:50;12;12;
76025;PMS5003;64721;51.084;17.242;2022-11-11T12:53:03;10;9;
76025;PMS5003;64721;51.084;17.242;2022-11-11T12:56:20;9;9;
76025;PMS5003;64721;51.084;17.242;2022-11-11T12:58:29;16;16;
76025;PMS5003;64721;51.084;17.242;2022-11-11T13:07:31;9;8;
76025;PMS5003;64721;51.084;17.242;2022-11-11T13:16:06;17;16;
76025;PMS5003;64721;51.084;17.242;2022-11-11T13:18:11;16;15;
76025;PMS5003;64721;51.084;17.242;2022-11-11T13:20:18;21;20;
76025;PMS5003;64721;51.084;17.242;2022-11-11T13:22:25;6;5;
76025;PMS5003;64721;51.084;17.242;2022-11-11T13:24:37;13;12;
76025;PMS5003;64721;51.084;17.242;2022-11-11T13:27:25;7;6;
76025;PMS5003;64721;51.084;17.242;2022-11-11T13:33:35;8;8;
76025;PMS5003;64721;51.084;17.242;2022-11-11T13:35:57;12;11;
76025;PMS5003;64721;51.084;17.242;2022-11-11T13:38:02;5;5;
76025;PMS5003;64721;51.084;17.242;2022-11-11T13:39:57;5;5;
76025;PMS5003;64721;51.084;17.242;2022-11-11T13:42:02;15;14;
76025;PMS5003;64721;51.084;17.242;2022-11-11T13:43:52;15;14;
76025;PMS5003;64721;51.084;17.242;2022-11-11T13:46:03;4;4;
76025;PMS5003;64721;51.084;17.242;2022-11-11T13:48:05;7;5;
76025;PMS5003;64721;51.084;17.242;2022-11-11T13:50:08;5;5;
76025;PMS5003;64721;51.084;17.242;2022-11-11T13:52:41;13;12;
76025;PMS5003;64721;51.084;17.242;2022-11-11T13:54:28;13;12;
76025;PMS5003;64721;51.084;17.242;2022-11-11T13:56:31;13;12;
76025;PMS5003;64721;51.084;17.242;2022-11-11T13:58:32;15;15;
76025;PMS5003;64721;51.084;17.242;2022-11-11T14:00:35;6;6;
76025;PMS5003;64721;51.084;17.242;2022-11-11T14:02:45;16;16;
76025;PMS5003;64721;51.084;17.242;2022-11-11T14:06:59;8;8;
76025;PMS5003;64721;51.084;17.242;2022-11-11T14:09:08;10;8;
76025;PMS5003;64721;51.084;17.242;2022-11-11T14:11:24;25;22;
76025;PMS5003;64721;51.084;17.242;2022-11-11T14:13:46;13;10;
76025;PMS5003;64721;51.084;17.242;2022-11-11T14:15:44;13;11;
76025;PMS5003;64721;51.084;17.242;2022-11-11T14:17:41;17;17;
76025;PMS5003;64721;51.084;17.242;2022-11-11T14:19:49;9;9;
76025;PMS5003;64721;51.084;17.242;2022-11-11T14:22:34;10;9;
76025;PMS5003;64721;51.084;17.242;2022-11-11T14:24:40;9;8;
76025;PMS5003;64721;51.084;17.242;2022-11-11T14:26:57;7;6;
76025;PMS5003;64721;51.084;17.242;2022-11-11T14:29:04;13;13;
76025;PMS5003;64721;51.084;17.242;2022-11-11T14:33:39;13;13;
76025;PMS5003;64721;51.084;17.242;2022-11-11T14:36:19;15;15;
76025;PMS5003;64721;51.084;17.242;2022-11-11T14:38:18;15;15;
76025;PMS5003;64721;51.084;17.242;2022-11-11T14:40:28;7;7;
76025;PMS5003;64721;51.084;17.242;2022-11-11T14:48:00;7;7;
76025;PMS5003;64721;51.084;17.242;2022-11-11T14:50:08;7;7;
76025;PMS5003;64721;51.084;17.242;2022-11-11T14:53:07;20;20;
76025;PMS5003;64721;51.084;17.242;2022-11-11T14:55:35;12;12;
76025;PMS5003;64721;51.084;17.242;2022-11-11T14:57:39;6;6;
76025;PMS5003;64721;51.084;17.242;2022-11-11T15:00:17;23;22;